Dupont, Indiana
Current Conditions -  °F | °C
As of 8:55 PM on Friday 21 Nov 2014 (Local Time) from KBAK Reporting Station
Clear Clear  
Wind Chill: 27°   Ceiling: Unl
Heat Index: 27°   Visibility: 10mi
Dew Point: 12°   Wind: 3mph
Humidity: 55%   Direction: 130°SE
Pressure: 30.4"   Gusts: NA
Location:  38.89°N, 85.51°W
Report Text: KBAK 220155Z 13003KT 10SM SKC M03/M11 A3040
Loading
Personal Weather Stations






























Interactive Weather Map New forecast layout! Learn more

10-Day Weather Forecast

Advertisements
Track Severe Weather on mobile